Time;durP1;ratioP1;P1;durP2;ratioP2;P2;SDS_P1;SDS_P2;PMS_P1;PMS_P2;Temp;Humidity;BMP_temperature;BMP_pressure;BME280_temperature;BME280_humidity;BME280_pressure;Samples;Min_cycle;Max_cycle;Signal;HPM_P1;HPM_P2
2022/12/14 00:00:42;;;;;;;;;;;;;;;1.08;79.82;98806.34;4980160;28;19929;-78
2022/12/14 00:03:08;;;;;;;;;;;;;;;1.07;79.64;98801.13;4995359;28;20016;-78
2022/12/14 00:05:33;;;;;;;;;;;;;;;1.09;79.78;98807.19;4996260;28;19964;-78
2022/12/14 00:07:59;;;;;;;;;;;;;;;1.09;79.81;98802.81;4995755;28;19918;-77
2022/12/14 00:10:24;;;;;;;;;;;;;;;1.10;79.69;98814.16;4994577;28;19914;-77
2022/12/14 00:12:49;;;;;;;;;;;;;;;1.09;80.36;98788.84;4996466;28;20386;-77
2022/12/14 00:15:15;;;;;;;;;;;;;;;1.09;79.95;98799.31;5011182;28;20008;-77
2022/12/14 00:17:40;;;;;;;;;;;;;;;1.10;79.98;98788.00;5018836;28;20240;-77
2022/12/14 00:20:05;;;;;;;;;;;;;;;1.09;79.97;98773.16;5001367;28;19964;-77
2022/12/14 00:22:31;;;;;;;;;;;;;;;1.09;79.95;98775.78;5012799;28;19920;-78
2022/12/14 00:24:56;;;;;;;;;;;;;;;1.08;81.12;98782.78;4994384;28;19918;-77
2022/12/14 00:27:21;;;;;;;;;;;;;;;1.10;80.97;98785.38;4994657;28;19918;-78
2022/12/14 00:29:47;;;;;;;;;;;;;;;1.11;79.94;98789.72;4991010;28;19960;-77
2022/12/14 00:32:12;;;;;;;;;;;;;;;1.10;80.55;98782.75;4977942;28;19929;-77
2022/12/14 00:34:37;;;;;;;;;;;;;;;1.11;80.29;98789.72;4977404;28;19929;-77
2022/12/14 00:37:02;;;;;;;;;;;;;;;1.11;78.40;98794.94;4993874;28;19925;-77
2022/12/14 00:39:28;;;;;;;;;;;;;;;1.10;78.57;98793.22;4993645;28;20321;-77
2022/12/14 00:41:53;;;;;;;;;;;;;;;1.07;78.53;98777.56;4976084;28;19944;-77
2022/12/14 00:44:18;;;;;;;;;;;;;;;1.04;78.61;98767.13;4991992;28;19960;-77
2022/12/14 00:46:44;;;;;;;;;;;;;;;1.05;78.69;98774.97;4991359;28;19932;-77
2022/12/14 00:49:09;;;;;;;;;;;;;;;1.09;79.31;98774.03;4997963;28;19932;-77
2022/12/14 00:51:35;;;;;;;;;;;;;;;1.10;79.97;98773.13;4974498;28;20461;-77
2022/12/14 00:54:00;;;;;;;;;;;;;;;1.08;79.09;98772.31;4969465;28;19952;-78
2022/12/14 00:56:25;;;;;;;;;;;;;;;1.05;79.33;98763.63;4976442;28;19941;-77
2022/12/14 00:58:51;;;;;;;;;;;;;;;1.05;79.51;98759.25;4995048;28;19918;-78
2022/12/14 01:01:16;;;;;;;;;;;;;;;1.08;80.01;98760.97;4992784;28;20029;-77
2022/12/14 01:03:42;;;;;;;;;;;;;;;1.09;79.64;98771.41;4976314;28;19920;-78
2022/12/14 01:06:18;;;;;;;;;;;;;;;1.13;80.47;98772.22;4976886;28;19940;-77
2022/12/14 01:08:43;;;;;;;;;;;;;;;1.12;79.80;98775.75;5008526;28;20465;-78
2022/12/14 01:11:09;;;;;;;;;;;;;;;1.11;79.62;98777.50;5012921;28;19914;-77
2022/12/14 01:13:35;;;;;;;;;;;;;;;1.12;80.99;98770.50;5001669;28;20360;-78
2022/12/14 01:16:01;;;;;;;;;;;;;;;1.11;80.30;98771.38;4975590;28;20362;-78
2022/12/14 01:18:26;;;;;;;;;;;;;;;1.14;80.96;98768.72;4995492;28;19953;-77
2022/12/14 01:20:51;;;;;;;;;;;;;;;1.17;80.66;98766.06;4975735;28;19921;-77
2022/12/14 01:23:17;;;;;;;;;;;;;;;1.22;80.51;98772.94;4975683;28;20231;-77
2022/12/14 01:25:42;;;;;;;;;;;;;;;1.24;80.80;98765.06;4991569;28;19921;-77
2022/12/14 01:28:07;;;;;;;;;;;;;;;1.21;79.58;98763.38;4993213;28;19932;-77
2022/12/14 01:30:33;;;;;;;;;;;;;;;1.20;79.45;98755.53;4975433;28;19925;-77
2022/12/14 01:32:59;;;;;;;;;;;;;;;1.13;79.23;98740.81;4995211;28;19921;-77
2022/12/14 01:35:24;;;;;;;;;;;;;;;1.19;79.88;98725.00;4976275;28;19936;-77
2022/12/14 01:37:50;;;;;;;;;;;;;;;1.27;80.18;98746.69;4975732;28;19922;-78
2022/12/14 01:40:15;;;;;;;;;;;;;;;1.22;79.29;98758.97;4978045;28;19937;-77
2022/12/14 01:42:41;;;;;;;;;;;;;;;1.21;80.06;98762.50;4975939;28;19953;-78
2022/12/14 01:45:16;;;;;;;;;;;;;;;1.19;80.31;98759.03;4975172;28;20590;-77
2022/12/14 01:47:43;;;;;;;;;;;;;;;1.19;80.32;98749.44;4994957;28;20286;-77
2022/12/14 01:50:15;;;;;;;;;;;;;;;1.20;80.92;98752.94;5012456;28;19967;-78
2022/12/14 01:52:42;;;;;;;;;;;;;;;1.20;80.58;98737.22;5009666;28;20284;-77
2022/12/14 01:55:11;;;;;;;;;;;;;;;1.21;81.32;98744.16;4975716;28;20005;-77
2022/12/14 01:57:57;;;;;;;;;;;;;;;1.22;82.92;98738.03;4975391;28;19925;-78
2022/12/14 02:00:38;;;;;;;;;;;;;;;1.22;81.80;98722.31;4976271;28;19925;-77
2022/12/14 02:03:11;;;;;;;;;;;;;;;1.23;81.54;98721.44;4973745;28;20526;-78
2022/12/14 02:05:39;;;;;;;;;;;;;;;1.23;81.10;98732.81;4976554;28;19914;-78
2022/12/14 02:08:05;;;;;;;;;;;;;;;1.21;79.84;98737.19;4994610;28;19922;-77
2022/12/14 02:10:31;;;;;;;;;;;;;;;1.19;79.24;98745.94;5001208;28;19918;-77
2022/12/14 02:13:05;;;;;;;;;;;;;;;1.18;79.26;98749.47;5002510;28;20002;-77
2022/12/14 02:15:32;;;;;;;;;;;;;;;1.20;80.84;98747.69;4993931;28;20022;-78
2022/12/14 02:17:58;;;;;;;;;;;;;;;1.21;80.41;98742.44;4976178;28;19921;-77
2022/12/14 02:20:33;;;;;;;;;;;;;;;1.20;80.70;98730.19;4992464;28;20293;-78
2022/12/14 02:22:58;;;;;;;;;;;;;;;1.21;80.25;98728.47;4976273;28;19926;-77
2022/12/14 02:25:33;;;;;;;;;;;;;;;1.19;80.42;98715.38;4974941;28;20000;-77
2022/12/14 02:28:17;;;;;;;;;;;;;;;1.20;80.71;98713.66;4979937;28;20324;-78
2022/12/14 02:30:47;;;;;;;;;;;;;;;1.21;80.50;98717.97;4975560;28;19937;-77
2022/12/14 02:33:19;;;;;;;;;;;;;;;1.26;80.61;98710.91;4993523;28;19952;-77
2022/12/14 02:35:45;;;;;;;;;;;;;;;1.27;80.92;98707.41;4991523;28;19918;-77
2022/12/14 02:38:16;;;;;;;;;;;;;;;1.33;80.49;98707.31;4975582;28;19918;-77
2022/12/14 02:40:48;;;;;;;;;;;;;;;1.36;78.40;98715.13;4975703;28;20000;-78
2022/12/14 02:43:20;;;;;;;;;;;;;;;1.32;76.79;98716.03;4981008;28;19921;-77
2022/12/14 02:45:56;;;;;;;;;;;;;;;1.28;78.20;98711.75;4999354;28;19959;-77
2022/12/14 02:48:24;;;;;;;;;;;;;;;1.27;78.69;98710.00;5007832;28;19967;-78
2022/12/14 02:51:08;;;;;;;;;;;;;;;1.30;78.51;98712.59;4976136;28;20049;-78
2022/12/14 02:53:45;;;;;;;;;;;;;;;1.30;79.52;98713.44;4994497;28;19929;-78
2022/12/14 02:56:14;;;;;;;;;;;;;;;1.31;79.72;98714.31;4997285;28;19914;-78
2022/12/14 02:58:49;;;;;;;;;;;;;;;1.33;79.87;98717.78;4997362;28;20384;-78
2022/12/14 03:01:20;;;;;;;;;;;;;;;1.38;79.59;98709.84;4980151;28;19918;-79
2022/12/14 03:03:46;;;;;;;;;;;;;;;1.35;78.25;98709.00;4981745;28;19914;-78
2022/12/14 03:06:25;;;;;;;;;;;;;;;1.38;77.34;98715.97;4978737;28;20041;-78
2022/12/14 03:08:52;;;;;;;;;;;;;;;1.29;77.30;98705.63;5012325;28;19976;-79
2022/12/14 03:11:23;;;;;;;;;;;;;;;1.25;77.78;98706.59;4998493;28;19928;-78
2022/12/14 03:13:53;;;;;;;;;;;;;;;1.20;78.28;98703.19;5004177;28;20003;-78
2022/12/14 03:16:24;;;;;;;;;;;;;;;1.17;79.50;98695.38;4996138;28;19949;-78
2022/12/14 03:18:55;;;;;;;;;;;;;;;1.18;80.56;98691.84;4981048;28;20343;-78
2022/12/14 03:21:25;;;;;;;;;;;;;;;1.20;80.50;98696.16;4995688;28;20020;-79
2022/12/14 03:23:51;;;;;;;;;;;;;;;1.23;80.83;98684.78;4995848;28;19921;-78
2022/12/14 03:26:26;;;;;;;;;;;;;;;1.25;81.31;98686.47;4977483;28;20363;-78
2022/12/14 03:28:54;;;;;;;;;;;;;;;1.25;81.11;98688.25;4978201;28;19918;-78
2022/12/14 03:31:21;;;;;;;;;;;;;;;1.22;81.34;98677.81;4979199;28;19921;-79
2022/12/14 03:33:47;;;;;;;;;;;;;;;1.20;82.43;98671.75;4995636;28;20305;-78
2022/12/14 03:36:24;;;;;;;;;;;;;;;1.23;81.78;98663.84;4994689;28;20069;-79
2022/12/14 03:38:51;;;;;;;;;;;;;;;1.22;83.17;98662.09;4998052;28;19921;-78
2022/12/14 03:41:32;;;;;;;;;;;;;;;1.19;82.92;98656.91;4996493;28;20681;-78
2022/12/14 03:44:16;;;;;;;;;;;;;;;1.22;83.27;98656.84;4998539;28;19960;-78
2022/12/14 03:46:49;;;;;;;;;;;;;;;1.26;83.90;98648.06;4996044;28;19928;-78
2022/12/14 03:49:17;;;;;;;;;;;;;;;1.28;84.91;98646.28;4995863;28;19956;-78
2022/12/14 03:51:56;;;;;;;;;;;;;;;1.27;85.11;98653.28;4996089;28;19929;-78
2022/12/14 03:54:30;;;;;;;;;;;;;;;1.17;85.76;98651.69;4991535;28;19922;-78
2022/12/14 03:57:05;;;;;;;;;;;;;;;1.16;86.67;98652.59;4978060;28;19917;-78
2022/12/14 03:59:37;;;;;;;;;;;;;;;1.13;86.85;98657.91;4979841;28;19983;-78
2022/12/14 04:02:02;;;;;;;;;;;;;;;1.13;87.72;98657.03;4994310;28;20265;-78
2022/12/14 04:04:43;;;;;;;;;;;;;;;1.14;87.51;98657.00;4994354;28;19917;-78
2022/12/14 04:07:15;;;;;;;;;;;;;;;1.11;88.25;98648.31;4979662;28;19929;-78
2022/12/14 04:09:50;;;;;;;;;;;;;;;1.12;89.48;98639.59;5013671;28;19964;-78
2022/12/14 04:20:47;;;;;;;;;;;;;;;1.03;90.74;98627.53;4995086;28;19948;-77
2022/12/14 04:26:08;;;;;;;;;;;;;;;1.00;91.61;98629.31;4995453;28;19937;-77
2022/12/14 04:31:24;;;;;;;;;;;;;;;0.98;92.08;98633.72;4998407;28;19960;-78
2022/12/14 04:33:53;;;;;;;;;;;;;;;0.96;92.64;98622.41;4979664;28;19918;-78
2022/12/14 04:36:24;;;;;;;;;;;;;;;0.96;93.47;98614.53;4977761;28;19977;-77
2022/12/14 04:38:53;;;;;;;;;;;;;;;0.96;94.03;98609.31;4980679;28;19924;-78
2022/12/14 04:41:21;;;;;;;;;;;;;;;0.97;94.34;98611.91;4994852;28;19918;-78
2022/12/14 04:43:49;;;;;;;;;;;;;;;0.94;93.74;98618.97;4980241;28;19914;-78
2022/12/14 04:46:16;;;;;;;;;;;;;;;0.91;93.99;98619.88;4977475;28;19924;-78
2022/12/14 04:48:45;;;;;;;;;;;;;;;0.94;94.46;98618.97;4985186;28;19926;-78
2022/12/14 04:51:27;;;;;;;;;;;;;;;0.96;95.57;98618.03;4994851;28;19914;-77
2022/12/14 04:53:57;;;;;;;;;;;;;;;1.03;95.75;98624.91;4982796;28;20011;-78
2022/12/14 04:56:35;;;;;;;;;;;;;;;1.05;96.65;98620.53;5014546;28;20047;-78
2022/12/14 04:59:00;;;;;;;;;;;;;;;1.03;96.17;98613.56;5014309;28;20008;-78
2022/12/14 05:01:28;;;;;;;;;;;;;;;0.99;96.33;98612.75;5002921;28;19925;-78
2022/12/14 05:03:54;;;;;;;;;;;;;;;1.00;96.78;98611.00;4986264;28;19947;-78
2022/12/14 05:06:31;;;;;;;;;;;;;;;1.01;96.63;98617.97;5014242;28;20456;-78
2022/12/14 05:09:08;;;;;;;;;;;;;;;1.00;97.06;98603.16;4990955;28;19999;-77
2022/12/14 05:11:44;;;;;;;;;;;;;;;0.98;97.54;98610.16;4984344;28;19917;-78
2022/12/14 05:14:15;;;;;;;;;;;;;;;0.97;98.09;98611.06;4996531;28;19924;-77
2022/12/14 05:16:40;;;;;;;;;;;;;;;0.97;97.64;98593.59;5012001;28;19914;-78
2022/12/14 05:19:06;;;;;;;;;;;;;;;0.98;98.47;98599.69;4996521;28;20004;-77
2022/12/14 05:21:47;;;;;;;;;;;;;;;1.02;97.60;98596.97;4996453;28;19936;-78
2022/12/14 05:24:13;;;;;;;;;;;;;;;1.06;98.25;98598.66;4980437;28;19918;-78
2022/12/14 05:26:38;;;;;;;;;;;;;;;1.10;99.21;98587.22;4977076;28;20024;-77
2022/12/14 05:29:04;;;;;;;;;;;;;;;1.11;98.93;98585.50;4996226;28;19992;-78
2022/12/14 05:31:29;;;;;;;;;;;;;;;1.08;98.89;98572.47;4997122;28;19972;-77
2022/12/14 05:33:54;;;;;;;;;;;;;;;1.05;99.49;98581.25;4977008;28;20328;-77
2022/12/14 05:36:26;;;;;;;;;;;;;;;1.07;98.85;98578.59;4976646;28;20350;-78
2022/12/14 05:38:52;;;;;;;;;;;;;;;1.07;99.65;98581.22;5002670;28;19917;-78
2022/12/14 05:41:17;;;;;;;;;;;;;;;1.04;99.15;98582.13;4994387;28;19989;-78
2022/12/14 05:43:42;;;;;;;;;;;;;;;1.02;100.00;98585.69;4976493;28;19914;-77
2022/12/14 05:46:10;;;;;;;;;;;;;;;0.98;99.72;98582.25;4995621;28;19925;-78
2022/12/14 05:48:35;;;;;;;;;;;;;;;0.98;99.80;98583.97;4993802;28;19976;-77
2022/12/14 05:51:07;;;;;;;;;;;;;;;0.96;100.00;98575.28;4994018;28;19922;-77
2022/12/14 05:53:34;;;;;;;;;;;;;;;0.93;100.00;98575.34;4983758;28;19921;-77
2022/12/14 05:55:59;;;;;;;;;;;;;;;0.94;99.81;98580.56;4993317;28;20320;-78
2022/12/14 05:58:24;;;;;;;;;;;;;;;0.88;100.00;98570.19;4975480;28;19922;-78
2022/12/14 06:00:50;;;;;;;;;;;;;;;0.90;99.99;98570.16;4978437;28;19921;-78
2022/12/14 06:03:15;;;;;;;;;;;;;;;0.89;99.62;98565.84;4991637;28;19913;-79
2022/12/14 06:05:41;;;;;;;;;;;;;;;0.93;100.00;98549.19;4994057;28;20274;-78
2022/12/14 06:08:06;;;;;;;;;;;;;;;0.96;99.05;98550.00;4979923;28;19985;-78
2022/12/14 06:10:31;;;;;;;;;;;;;;;0.97;99.47;98545.63;4977642;28;20553;-78
2022/12/14 06:12:56;;;;;;;;;;;;;;;0.94;99.77;98522.97;4978207;28;19917;-78
2022/12/14 06:15:22;;;;;;;;;;;;;;;0.92;98.96;98527.38;4976936;28;20380;-78
2022/12/14 06:17:47;;;;;;;;;;;;;;;0.90;100.00;98529.16;4973150;28;20000;-78
2022/12/14 06:20:13;;;;;;;;;;;;;;;0.95;100.00;98521.22;4991371;28;19924;-78
2022/12/14 06:22:38;;;;;;;;;;;;;;;0.91;99.89;98515.19;4993676;28;19926;-78
2022/12/14 06:25:04;;;;;;;;;;;;;;;0.82;98.99;98501.41;4976268;28;20034;-78
2022/12/14 06:27:29;;;;;;;;;;;;;;;0.84;100.00;98510.09;4995855;28;20395;-77
2022/12/14 06:29:55;;;;;;;;;;;;;;;0.84;99.84;98515.34;4993961;28;19962;-77
2022/12/14 06:32:20;;;;;;;;;;;;;;;0.86;100.00;98513.53;4976113;28;20388;-77
2022/12/14 06:34:46;;;;;;;;;;;;;;;0.89;100.00;98508.25;4979281;28;19933;-78
2022/12/14 06:37:11;;;;;;;;;;;;;;;0.95;100.00;98509.00;4976820;28;19924;-78
2022/12/14 06:39:37;;;;;;;;;;;;;;;0.94;100.00;98503.81;4974574;28;20073;-79
2022/12/14 06:42:03;;;;;;;;;;;;;;;0.90;100.00;98487.28;4961283;28;20381;-78
2022/12/14 06:44:28;;;;;;;;;;;;;;;0.91;100.00;98494.25;5000264;28;19918;-78
2022/12/14 06:46:54;;;;;;;;;;;;;;;0.93;100.00;98496.81;4982141;28;20242;-78
2022/12/14 06:49:20;;;;;;;;;;;;;;;0.95;100.00;98501.16;4969495;28;19918;-78
2022/12/14 06:51:46;;;;;;;;;;;;;;;0.94;100.00;98494.19;4969476;28;19918;-78
2022/12/14 06:54:11;;;;;;;;;;;;;;;0.94;100.00;98490.72;4994059;28;20296;-78
2022/12/14 06:56:37;;;;;;;;;;;;;;;0.98;100.00;98489.75;4981766;28;19929;-78
2022/12/14 06:59:04;;;;;;;;;;;;;;;0.96;100.00;98487.16;4999848;28;20266;-78
2022/12/14 07:01:29;;;;;;;;;;;;;;;0.94;100.00;98488.94;4980028;28;20288;-79
2022/12/14 07:03:56;;;;;;;;;;;;;;;0.92;100.00;98488.09;4996818;28;19960;-79
2022/12/14 07:06:22;;;;;;;;;;;;;;;0.93;100.00;98487.22;4984851;28;19914;-77
2022/12/14 07:08:47;;;;;;;;;;;;;;;0.91;100.00;98485.53;5013873;28;19925;-78
2022/12/14 07:11:14;;;;;;;;;;;;;;;0.91;100.00;98490.75;4995756;28;20420;-78
2022/12/14 07:13:39;;;;;;;;;;;;;;;0.91;100.00;98488.13;4981581;28;19949;-77
2022/12/14 07:16:05;;;;;;;;;;;;;;;0.90;100.00;98484.69;4967196;28;19988;-78
2022/12/14 07:18:31;;;;;;;;;;;;;;;0.94;100.00;98472.41;4979421;28;19917;-78
2022/12/14 07:20:57;;;;;;;;;;;;;;;0.98;100.00;98469.69;4995116;28;19926;-78
2022/12/14 07:23:23;;;;;;;;;;;;;;;1.01;100.00;98472.25;4995099;28;19914;-78
2022/12/14 07:25:49;;;;;;;;;;;;;;;1.02;100.00;98476.56;4995878;28;20032;-78
2022/12/14 07:28:14;;;;;;;;;;;;;;;1.04;100.00;98466.06;4977234;28;19922;-78
2022/12/14 07:30:39;;;;;;;;;;;;;;;1.05;100.00;98470.44;4996610;28;19918;-78
2022/12/14 07:33:05;;;;;;;;;;;;;;;1.09;100.00;98465.09;4994583;28;20405;-77
2022/12/14 07:35:30;;;;;;;;;;;;;;;1.16;100.00;98484.16;4986946;28;20013;-77
2022/12/14 07:37:56;;;;;;;;;;;;;;;1.17;100.00;98483.28;4960260;28;20069;-77
2022/12/14 07:40:21;;;;;;;;;;;;;;;1.18;100.00;98487.63;4994491;28;19928;-77
2022/12/14 07:42:48;;;;;;;;;;;;;;;0.92;100.00;98443.63;4977815;28;20049;-77
2022/12/14 07:45:13;;;;;;;;;;;;;;;1.19;100.00;98486.72;4979826;28;19929;-78
2022/12/14 07:47:38;;;;;;;;;;;;;;;1.19;100.00;98489.34;4975585;28;19922;-77
2022/12/14 07:50:04;;;;;;;;;;;;;;;1.19;100.00;98484.09;4978533;28;19918;-77
2022/12/14 07:52:29;;;;;;;;;;;;;;;1.19;100.00;98477.13;4983413;28;19926;-77
2022/12/14 07:54:54;;;;;;;;;;;;;;;1.21;100.00;98482.31;4988553;28;19925;-78
2022/12/14 07:57:20;;;;;;;;;;;;;;;1.24;100.00;98477.00;5016042;28;20012;-78
2022/12/14 07:59:45;;;;;;;;;;;;;;;1.24;100.00;98483.13;4987119;28;20250;-78
2022/12/14 08:02:11;;;;;;;;;;;;;;;1.24;100.00;98471.78;5011105;28;20392;-77
2022/12/14 08:04:36;;;;;;;;;;;;;;;1.24;100.00;98471.78;4996153;28;19914;-78
2022/12/14 08:07:01;;;;;;;;;;;;;;;1.23;100.00;98472.69;5008807;28;19975;-78
2022/12/14 08:09:27;;;;;;;;;;;;;;;1.20;100.00;98465.72;4997040;28;19925;-78
2022/12/14 08:11:52;;;;;;;;;;;;;;;1.21;100.00;98461.38;4988455;28;19922;-77
2022/12/14 08:14:18;;;;;;;;;;;;;;;1.23;100.00;98464.81;4990710;28;20006;-77
2022/12/14 08:16:44;;;;;;;;;;;;;;;1.31;100.00;98468.16;4999033;28;19925;-77
2022/12/14 08:19:09;;;;;;;;;;;;;;;1.36;100.00;98455.81;4994605;28;20684;-77
2022/12/14 08:21:35;;;;;;;;;;;;;;;1.41;100.00;98464.44;4984170;28;19933;-78
2022/12/14 08:24:00;;;;;;;;;;;;;;;1.39;100.00;98463.59;5001213;28;20008;-78
2022/12/14 08:26:26;;;;;;;;;;;;;;;1.33;100.00;98459.34;4984206;28;19918;-78
2022/12/14 08:28:53;;;;;;;;;;;;;;;1.34;100.00;98460.22;5003278;28;19957;-78
2022/12/14 08:31:20;;;;;;;;;;;;;;;1.40;100.00;98457.47;5005564;28;20340;-78
2022/12/14 08:33:46;;;;;;;;;;;;;;;1.37;100.00;98452.28;5019138;28;19952;-79
2022/12/14 08:36:12;;;;;;;;;;;;;;;1.42;100.00;98439.97;4989424;28;19929;-78
2022/12/14 08:38:38;;;;;;;;;;;;;;;1.42;100.00;98442.59;5004297;28;19914;-79
2022/12/14 08:41:05;;;;;;;;;;;;;;;1.46;100.00;98438.13;5007156;28;19925;-78
2022/12/14 08:43:30;;;;;;;;;;;;;;;1.48;100.00;98438.97;5005161;28;19960;-79
2022/12/14 08:45:55;;;;;;;;;;;;;;;1.45;100.00;98439.88;5006633;28;20468;-78
2022/12/14 08:48:21;;;;;;;;;;;;;;;1.44;100.00;98443.41;5006048;28;20424;-79
2022/12/14 08:50:46;;;;;;;;;;;;;;;1.46;100.00;98436.41;5019802;28;19921;-79
2022/12/14 08:53:11;;;;;;;;;;;;;;;1.46;100.00;98431.16;5010210;28;20010;-79
2022/12/14 08:55:37;;;;;;;;;;;;;;;1.50;100.00;98424.09;5010767;28;19953;-79
2022/12/14 08:58:02;;;;;;;;;;;;;;;1.53;100.00;98421.41;5029394;28;19925;-79
2022/12/14 09:00:27;;;;;;;;;;;;;;;1.57;100.00;98439.63;5024318;28;19922;-79
2022/12/14 09:02:53;;;;;;;;;;;;;;;1.55;100.00;98438.78;4995573;28;19917;-78
2022/12/14 09:05:18;;;;;;;;;;;;;;;1.52;100.00;98441.50;5010458;28;19917;-79
2022/12/14 09:07:44;;;;;;;;;;;;;;;1.50;100.00;98453.75;5014142;28;19973;-78
2022/12/14 09:10:09;;;;;;;;;;;;;;;1.49;100.00;98462.50;5009957;28;19981;-79
2022/12/14 09:12:35;;;;;;;;;;;;;;;1.50;100.00;98464.22;4992328;28;20397;-79
2022/12/14 09:15:00;;;;;;;;;;;;;;;1.54;100.00;98459.78;5010972;28;19974;-79
2022/12/14 09:17:26;;;;;;;;;;;;;;;1.55;100.00;98456.28;5015320;28;19921;-79
2022/12/14 09:19:51;;;;;;;;;;;;;;;1.57;100.00;98460.59;4989468;28;19944;-80
2022/12/14 09:22:16;;;;;;;;;;;;;;;1.60;100.00;98454.44;5007536;28;20012;-80
2022/12/14 09:24:41;;;;;;;;;;;;;;;1.60;100.00;98451.81;4984946;28;19945;-80
2022/12/14 09:27:07;;;;;;;;;;;;;;;1.59;100.00;98468.41;4998352;28;19965;-81
2022/12/14 09:29:33;;;;;;;;;;;;;;;1.57;100.00;98476.31;4996182;28;19932;-81
2022/12/14 09:31:58;;;;;;;;;;;;;;;1.61;100.00;98477.13;4979401;28;20159;-81
2022/12/14 09:34:24;;;;;;;;;;;;;;;1.59;100.00;98464.03;5004986;28;20019;-81
2022/12/14 09:36:49;;;;;;;;;;;;;;;1.61;100.00;98462.25;4999887;28;19924;-81
2022/12/14 09:39:14;;;;;;;;;;;;;;;1.64;100.00;98467.44;5000146;28;19918;-81
2022/12/14 09:41:56;;;;;;;;;;;;;;;1.68;100.00;98463.81;5000919;28;19914;-81
2022/12/14 09:44:31;;;;;;;;;;;;;;;1.71;100.00;98458.53;4999498;28;19914;-81
2022/12/14 09:47:02;;;;;;;;;;;;;;;1.73;100.00;98450.66;4993804;28;20028;-81
2022/12/14 09:49:28;;;;;;;;;;;;;;;1.76;100.00;98453.19;5020705;28;19913;-81
2022/12/14 09:51:55;;;;;;;;;;;;;;;1.80;100.00;98457.44;5020215;28;20361;-81
2022/12/14 09:54:23;;;;;;;;;;;;;;;1.83;100.00;98462.66;4987514;28;19981;-82
2022/12/14 09:56:48;;;;;;;;;;;;;;;1.83;100.00;98468.72;4986731;28;20348;-82
2022/12/14 09:59:16;;;;;;;;;;;;;;;1.89;100.00;98463.38;4998577;28;20012;-83
2022/12/14 10:01:47;;;;;;;;;;;;;;;1.98;100.00;98464.88;4989257;28;19983;-83
2022/12/14 10:04:34;;;;;;;;;;;;;;;2.04;100.00;98475.25;4984833;28;20361;-83
2022/12/14 10:07:15;;;;;;;;;;;;;;;2.04;100.00;98468.22;4976591;28;19925;-83
2022/12/14 10:09:45;;;;;;;;;;;;;;;2.27;100.00;98472.94;4995671;28;19949;-83
2022/12/14 10:12:10;;;;;;;;;;;;;;;2.43;100.00;98472.53;4975273;28;19915;-83
2022/12/14 10:14:38;;;;;;;;;;;;;;;2.65;100.00;98475.47;4974010;28;20290;-83
2022/12/14 10:17:04;;;;;;;;;;;;;;;2.82;100.00;98467.16;4988696;28;19917;-83
2022/12/14 10:19:42;;;;;;;;;;;;;;;2.98;100.00;98471.09;4976741;28;19921;-83
2022/12/14 10:22:17;;;;;;;;;;;;;;;2.98;98.99;98466.72;5002781;28;19921;-83
2022/12/14 10:24:54;;;;;;;;;;;;;;;2.91;97.94;98461.66;4981522;28;20009;-82
2022/12/14 10:27:23;;;;;;;;;;;;;;;2.81;97.32;98478.56;4997331;28;19948;-82
2022/12/14 10:29:56;;;;;;;;;;;;;;;2.67;96.98;98481.53;4998271;28;20393;-82
2022/12/14 10:32:29;;;;;;;;;;;;;;;2.61;96.91;98477.31;4981687;28;19917;-82
2022/12/14 10:34:54;;;;;;;;;;;;;;;2.63;97.40;98470.28;4995440;28;19913;-82
2022/12/14 10:37:25;;;;;;;;;;;;;;;2.72;97.30;98463.91;4980499;28;20278;-83
2022/12/14 10:39:50;;;;;;;;;;;;;;;2.85;97.57;98477.59;4979398;28;19968;-83
2022/12/14 10:42:22;;;;;;;;;;;;;;;2.94;97.44;98469.44;4978785;28;19917;-83
2022/12/14 10:45:06;;;;;;;;;;;;;;;2.84;95.96;98475.84;4979822;28;19914;-83
2022/12/14 10:47:43;;;;;;;;;;;;;;;2.79;95.67;98475.97;4978824;28;19917;-83
2022/12/14 10:50:26;;;;;;;;;;;;;;;2.78;95.71;98460.25;5004994;28;19924;-83
2022/12/14 10:52:52;;;;;;;;;;;;;;;2.75;94.89;98468.22;4994971;28;19949;-83
2022/12/14 10:55:21;;;;;;;;;;;;;;;2.67;95.21;98469.28;4976732;28;19924;-83
2022/12/14 10:57:47;;;;;;;;;;;;;;;2.69;95.68;98464.84;4986938;28;19921;-83
2022/12/14 11:00:14;;;;;;;;;;;;;;;2.75;95.08;98463.84;4997882;28;19914;-83
2022/12/14 11:02:41;;;;;;;;;;;;;;;2.86;95.13;98467.03;4996289;28;19918;-82
2022/12/14 11:05:22;;;;;;;;;;;;;;;3.00;95.14;98469.28;4972797;28;19937;-83
2022/12/14 11:07:48;;;;;;;;;;;;;;;3.02;94.68;98472.72;5006437;28;19924;-83
2022/12/14 11:10:14;;;;;;;;;;;;;;;3.10;94.32;98470.78;4996064;28;20697;-83
2022/12/14 11:12:39;;;;;;;;;;;;;;;3.21;94.23;98459.06;4980440;28;19917;-82
2022/12/14 11:15:05;;;;;;;;;;;;;;;3.14;93.48;98449.63;4979108;28;19917;-82
2022/12/14 11:17:30;;;;;;;;;;;;;;;3.24;93.20;98455.47;4979303;28;19924;-82
2022/12/14 11:20:13;;;;;;;;;;;;;;;3.32;92.87;98469.25;4979807;28;19914;-83
2022/12/14 11:22:46;;;;;;;;;;;;;;;3.44;92.63;98467.13;4984252;28;20023;-83
2022/12/14 11:25:33;;;;;;;;;;;;;;;3.50;92.34;98476.59;4990426;28;20290;-83
2022/12/14 11:28:01;;;;;;;;;;;;;;;3.53;91.34;98476.50;4960987;28;20058;-83
2022/12/14 11:30:27;;;;;;;;;;;;;;;3.50;91.15;98473.97;4972452;28;20382;-82
2022/12/14 11:32:53;;;;;;;;;;;;;;;3.52;91.17;98469.53;4981653;28;19913;-82
2022/12/14 11:35:19;;;;;;;;;;;;;;;3.50;90.68;98463.47;5007177;28;19968;-83
2022/12/14 11:37:47;;;;;;;;;;;;;;;3.57;90.69;98462.38;5002188;28;19960;-82
2022/12/14 11:40:20;;;;;;;;;;;;;;;3.64;90.10;98463.94;5006112;28;19932;-83
2022/12/14 11:42:47;;;;;;;;;;;;;;;3.69;89.73;98462.88;4971808;28;20424;-82
2022/12/14 11:45:18;;;;;;;;;;;;;;;3.70;89.99;98469.88;4977287;28;19914;-82
2022/12/14 11:47:44;;;;;;;;;;;;;;;3.62;89.13;98474.50;4988829;28;19921;-83
2022/12/14 11:50:24;;;;;;;;;;;;;;;3.61;89.47;98470.13;5000675;28;19945;-83
2022/12/14 11:52:49;;;;;;;;;;;;;;;3.62;89.09;98466.59;5009548;28;19928;-83
2022/12/14 11:55:17;;;;;;;;;;;;;;;3.67;88.67;98472.56;5008804;28;19913;-83
2022/12/14 11:57:52;;;;;;;;;;;;;;;3.72;89.17;98473.28;5020484;28;19918;-84
2022/12/14 12:00:29;;;;;;;;;;;;;;;3.77;88.52;98471.38;4996428;28;19945;-84
2022/12/14 12:03:05;;;;;;;;;;;;;;;3.78;88.13;98483.63;4996366;28;19914;-84
2022/12/14 12:05:31;;;;;;;;;;;;;;;3.67;88.25;98469.09;4993542;28;19917;-84
2022/12/14 12:07:58;;;;;;;;;;;;;;;3.52;88.72;98470.41;4989883;28;20008;-83
2022/12/14 12:10:26;;;;;;;;;;;;;;;3.55;88.42;98485.22;5007717;28;19917;-84
2022/12/14 12:13:03;;;;;;;;;;;;;;;3.42;88.27;98495.22;5009717;28;19956;-84
2022/12/14 12:15:36;;;;;;;;;;;;;;;3.33;88.93;98502.50;4991497;28;19922;-84
2022/12/14 12:18:12;;;;;;;;;;;;;;;3.29;89.46;98503.50;4993143;28;20003;-84
2022/12/14 12:20:40;;;;;;;;;;;;;;;3.28;89.78;98502.63;4990886;28;20020;-84
2022/12/14 12:23:12;;;;;;;;;;;;;;;3.32;90.35;98485.88;4990557;28;19984;-84
2022/12/14 12:25:39;;;;;;;;;;;;;;;3.48;90.55;98476.66;5007918;28;19921;-84
2022/12/14 12:28:11;;;;;;;;;;;;;;;3.62;91.25;98481.50;4988386;28;19976;-84
2022/12/14 12:30:38;;;;;;;;;;;;;;;3.67;90.40;98475.19;4986280;28;20385;-84
2022/12/14 12:33:14;;;;;;;;;;;;;;;3.78;90.63;98480.13;4991019;28;19917;-84
2022/12/14 12:35:45;;;;;;;;;;;;;;;3.76;90.37;98476.69;5015676;28;19917;-85
2022/12/14 12:38:31;;;;;;;;;;;;;;;3.77;90.33;98481.06;4997143;28;20442;-85
2022/12/14 12:41:20;;;;;;;;;;;;;;;3.78;89.99;98473.13;4999799;28;20004;-85
2022/12/14 12:43:53;;;;;;;;;;;;;;;3.86;90.29;98470.25;4991438;28;20324;-85
2022/12/14 12:46:25;;;;;;;30.52;15.95;;;;;;;3.64;90.00;98429.75;4980672;28;20428;-85
2022/12/14 12:49:04;;;;;;;26.73;15.30;;;;;;;3.85;90.35;98479.06;5001286;28;20110;-85
2022/12/14 12:51:54;;;;;;;26.42;14.45;;;;;;;3.50;89.96;98418.78;4988543;28;20121;-85
2022/12/14 12:54:34;;;;;;;26.95;13.13;;;;;;;3.71;90.05;98473.34;4995309;28;20038;-87
2022/12/14 12:57:01;;;;;;;27.65;14.35;;;;;;;3.59;90.11;98461.41;4996729;28;20054;-87
2022/12/14 12:59:44;;;;;;;31.85;14.57;;;;;;;3.60;90.95;98464.91;4998702;28;20045;-85
2022/12/14 13:02:32;;;;;;;29.48;14.20;;;;;;;3.55;91.24;98485.22;4993526;28;20054;-84
2022/12/14 13:05:01;;;;;;;26.50;13.77;;;;;;;3.55;91.02;98479.97;4991241;28;20061;-86
2022/12/14 13:08:04;;;;;;;22.45;12.13;;;;;;;3.43;91.90;98469.78;4997354;28;20045;-86
2022/12/14 13:10:44;;;;;;;23.42;13.77;;;;;;;3.47;91.90;98474.06;4997758;28;20044;-87
2022/12/14 13:13:20;;;;;;;26.15;14.77;;;;;;;3.62;91.53;98492.03;4997880;28;20034;-86